Time;durP1;ratioP1;P1;durP2;ratioP2;P2;SDS_P1;SDS_P2;PMS_P1;PMS_P2;Temp;Humidity;BMP_temperature;BMP_pressure;BME280_temperature;BME280_humidity;BME280_pressure;Samples;Min_cycle;Max_cycle;Signal;HPM_P1;HPM_P2
2021/10/15 00:00:24;;;;;;;1.90;1.40;;;;;;;8.45;72.21;98284.84;6241794;28;20199;-71
2021/10/15 00:03:26;;;;;;;3.00;1.60;;;;;;;8.43;72.81;98285.88;6260876;28;20266;-71
2021/10/15 00:06:28;;;;;;;3.17;1.53;;;;;;;8.44;72.15;98285.78;6259083;28;20189;-71
2021/10/15 00:09:30;;;;;;;1.60;1.30;;;;;;;8.45;72.44;98287.47;6260352;28;20222;-71
2021/10/15 00:12:33;;;;;;;2.50;1.50;;;;;;;8.46;72.52;98283.06;6259843;28;20217;-71
2021/10/15 00:15:37;;;;;;;3.73;1.37;;;;;;;8.46;73.33;98285.69;6258928;28;20207;-71
2021/10/15 00:18:39;;;;;;;2.27;1.60;;;;;;;8.39;73.38;98276.47;6241314;28;20290;-71
2021/10/15 00:21:41;;;;;;;2.10;1.80;;;;;;;8.36;73.57;98276.66;6237128;28;20210;-71
2021/10/15 00:24:43;;;;;;;1.90;1.20;;;;;;;8.37;72.98;98278.38;6260942;28;20641;-71
2021/10/15 00:27:45;;;;;;;1.77;1.30;;;;;;;8.32;72.93;98273.38;6241714;28;20214;-71
2021/10/15 00:30:47;;;;;;;1.47;1.23;;;;;;;8.31;73.12;98270.81;6215330;28;20228;-71
2021/10/15 00:33:49;;;;;;;1.33;1.23;;;;;;;8.29;74.40;98275.31;6209704;28;20211;-71
2021/10/15 00:36:51;;;;;;;2.60;1.47;;;;;;;8.28;74.61;98265.75;6209259;28;20202;-71
2021/10/15 00:39:53;;;;;;;3.43;1.30;;;;;;;8.22;74.61;98266.97;6210750;28;20251;-71
2021/10/15 00:42:55;;;;;;;1.30;1.13;;;;;;;8.16;74.64;98264.72;6224918;28;20200;-71
2021/10/15 00:45:57;;;;;;;1.10;1.00;;;;;;;8.13;74.91;98255.22;6209986;28;20282;-71
2021/10/15 00:49:04;;;;;;;1.50;1.10;;;;;;;8.11;74.67;98261.50;6209407;28;20196;-71
2021/10/15 00:52:08;;;;;;;1.00;0.90;;;;;;;8.05;75.44;98254.84;6207757;28;20199;-71
2021/10/15 00:55:10;;;;;;;2.00;1.20;;;;;;;7.99;75.45;98259.63;6225391;28;20585;-71
2021/10/15 00:58:12;;;;;;;1.57;1.00;;;;;;;7.92;75.77;98248.66;6208719;28;20570;-71
2021/10/15 01:01:15;;;;;;;1.40;1.00;;;;;;;7.86;75.86;98249.03;6207814;28;20201;-71
2021/10/15 01:04:18;;;;;;;1.50;1.40;;;;;;;7.75;75.71;98251.44;6209096;28;20199;-71
2021/10/15 01:07:20;;;;;;;1.90;1.53;;;;;;;7.68;76.01;98250.13;6208460;28;20191;-71
2021/10/15 01:10:24;;;;;;;2.03;1.50;;;;;;;7.59;75.79;98242.78;6206356;28;20247;-71
2021/10/15 01:13:29;;;;;;;4.37;1.87;;;;;;;7.54;76.80;98242.22;6208324;28;20710;-71
2021/10/15 01:16:33;;;;;;;1.40;1.30;;;;;;;7.53;76.46;98243.16;6209593;28;20651;-71
2021/10/15 01:19:36;;;;;;;2.00;1.20;;;;;;;7.49;76.38;98229.34;6208711;28;20198;-71
2021/10/15 01:22:38;;;;;;;2.73;1.47;;;;;;;7.49;76.43;98236.38;6210513;28;20227;-71
2021/10/15 01:25:39;;;;;;;1.40;1.10;;;;;;;7.44;76.55;98222.69;6208290;28;20179;-71
2021/10/15 01:28:42;;;;;;;1.47;1.20;;;;;;;7.37;76.17;98219.59;6206257;28;20706;-71
2021/10/15 01:31:44;;;;;;;1.63;1.23;;;;;;;7.31;76.65;98222.53;6259465;28;20197;-71
2021/10/15 01:34:46;;;;;;;2.30;1.30;;;;;;;7.25;76.88;98213.25;6239524;28;20215;-71
2021/10/15 01:37:48;;;;;;;2.97;1.63;;;;;;;7.19;77.44;98215.38;6241946;28;20571;-71
2021/10/15 01:40:50;;;;;;;3.20;1.23;;;;;;;7.12;77.19;98214.91;6238696;28;20196;-71
2021/10/15 01:43:52;;;;;;;2.13;1.30;;;;;;;7.04;77.54;98214.50;6257416;28;20278;-71
2021/10/15 01:46:54;;;;;;;2.70;1.57;;;;;;;6.99;77.42;98208.66;6256468;28;20202;-71
2021/10/15 01:49:56;;;;;;;3.73;1.33;;;;;;;6.93;77.41;98203.78;6258528;28;20473;-71
2021/10/15 01:53:00;;;;;;;1.77;1.50;;;;;;;6.90;77.54;98199.53;6256754;28;20195;-71
2021/10/15 01:56:02;;;;;;;1.83;1.50;;;;;;;6.90;77.63;98202.16;6238118;28;20240;-71
2021/10/15 01:59:06;;;;;;;1.70;1.60;;;;;;;6.90;77.84;98198.69;6258687;28;20198;-71
2021/10/15 02:02:08;;;;;;;2.33;1.20;;;;;;;6.91;77.96;98197.75;6238826;28;20655;-71
2021/10/15 02:05:14;;;;;;;1.10;1.00;;;;;;;6.89;78.02;98189.13;6256465;28;20200;-71
2021/10/15 02:08:16;;;;;;;1.37;1.13;;;;;;;6.86;78.12;98184.91;6257090;28;20208;-71
2021/10/15 02:11:19;;;;;;;1.57;1.47;;;;;;;6.87;77.97;98177.91;6240748;28;20203;-71
2021/10/15 02:14:21;;;;;;;2.00;1.57;;;;;;;6.88;78.21;98177.81;6256401;28;20710;-71
2021/10/15 02:17:22;;;;;;;1.10;1.00;;;;;;;6.89;78.21;98181.25;6233670;28;20195;-71
2021/10/15 02:20:25;;;;;;;1.40;1.30;;;;;;;6.88;78.34;98174.34;6241190;28;20683;-72
2021/10/15 02:23:27;;;;;;;1.40;1.30;;;;;;;6.88;78.30;98163.84;6258328;28;20202;-71
2021/10/15 02:26:29;;;;;;;2.60;1.50;;;;;;;6.88;78.10;98162.06;6254623;28;20405;-71
2021/10/15 02:29:31;;;;;;;1.70;1.17;;;;;;;6.87;78.36;98154.28;6262123;28;20223;-71
2021/10/15 02:32:33;;;;;;;1.30;1.20;;;;;;;6.84;78.50;98164.94;6266162;28;20647;-71
2021/10/15 02:35:35;;;;;;;1.87;1.03;;;;;;;6.80;78.97;98168.66;6231611;28;20205;-71
2021/10/15 02:38:37;;;;;;;1.33;1.20;;;;;;;6.80;79.00;98179.16;6263433;28;20651;-71
2021/10/15 02:41:40;;;;;;;1.43;1.00;;;;;;;6.81;79.24;98170.34;6266832;28;20227;-71
2021/10/15 02:44:43;;;;;;;3.13;1.30;;;;;;;6.82;78.85;98177.31;6260102;28;20203;-71
2021/10/15 02:47:44;;;;;;;1.90;0.80;;;;;;;6.85;78.93;98175.34;6248255;28;20657;-71
2021/10/15 02:50:46;;;;;;;1.20;0.97;;;;;;;6.85;78.99;98177.13;6263313;28;20191;-71
2021/10/15 02:53:48;;;;;;;1.93;1.30;;;;;;;6.76;79.08;98173.25;6265009;28;20209;-71
2021/10/15 02:56:50;;;;;;;2.33;1.27;;;;;;;6.76;79.24;98175.88;6265521;28;20194;-71
2021/10/15 02:59:52;;;;;;;2.33;1.33;;;;;;;6.75;79.35;98165.47;6246833;28;20208;-71
2021/10/15 03:02:56;;;;;;;3.90;1.50;;;;;;;6.72;79.46;98157.78;6265521;28;20193;-71
2021/10/15 03:05:58;;;;;;;2.47;1.70;;;;;;;6.69;79.42;98160.59;6262669;28;20702;-71
2021/10/15 03:09:01;;;;;;;2.37;1.20;;;;;;;6.70;79.59;98164.88;6266486;28;20298;-71
2021/10/15 03:12:04;;;;;;;1.73;1.30;;;;;;;6.73;80.03;98162.09;6260302;28;20201;-71
2021/10/15 03:15:07;;;;;;;1.77;1.30;;;;;;;6.70;79.84;98159.63;6264460;28;20228;-71
2021/10/15 03:18:09;;;;;;;1.03;1.00;;;;;;;6.68;80.00;98162.38;6265332;28;20198;-71
2021/10/15 03:21:11;;;;;;;1.67;1.27;;;;;;;6.65;79.52;98157.28;6263711;28;20209;-71
2021/10/15 03:24:14;;;;;;;1.67;1.33;;;;;;;6.61;79.62;98158.38;6265472;28;20223;-71
2021/10/15 03:27:16;;;;;;;2.10;1.80;;;;;;;6.54;80.46;98160.50;6264507;28;20221;-71
2021/10/15 03:30:18;;;;;;;1.73;1.60;;;;;;;6.51;80.09;98157.22;6261690;28;20240;-71
2021/10/15 03:33:20;;;;;;;1.83;1.40;;;;;;;6.47;80.36;98153.94;6247400;28;20184;-71
2021/10/15 03:36:22;;;;;;;2.43;1.40;;;;;;;6.45;80.03;98160.19;6258557;28;20987;-72
2021/10/15 03:39:24;;;;;;;1.57;1.30;;;;;;;6.42;80.76;98158.56;6260014;28;20274;-71
2021/10/15 03:42:26;;;;;;;2.50;1.83;;;;;;;6.37;80.89;98150.13;6260506;28;20189;-71
2021/10/15 03:45:28;;;;;;;2.13;1.37;;;;;;;6.29;80.65;98152.31;6260331;28;20196;-71
2021/10/15 03:48:30;;;;;;;2.93;1.80;;;;;;;6.21;80.79;98141.41;6260995;28;20241;-71
2021/10/15 03:51:32;;;;;;;2.93;1.83;;;;;;;6.16;81.08;98143.47;6260016;28;20196;-71
2021/10/15 03:54:34;;;;;;;1.87;1.30;;;;;;;6.12;80.99;98134.06;6260729;28;20210;-71
2021/10/15 03:57:36;;;;;;;2.73;1.80;;;;;;;6.07;81.36;98129.09;6258001;28;20242;-71
2021/10/15 04:00:38;;;;;;;2.30;1.40;;;;;;;6.01;81.77;98125.94;6259892;28;20187;-71
2021/10/15 04:03:40;;;;;;;2.57;1.60;;;;;;;5.95;81.79;98126.28;6243486;28;20196;-71
2021/10/15 04:06:42;;;;;;;4.77;1.67;;;;;;;5.86;81.46;98125.00;6255301;28;20225;-71
2021/10/15 04:09:44;;;;;;;3.70;1.70;;;;;;;5.78;81.68;98121.94;6257780;28;20198;-71
2021/10/15 04:12:46;;;;;;;2.13;1.33;;;;;;;5.72;82.39;98119.63;6259865;28;20197;-71
2021/10/15 04:15:47;;;;;;;6.93;1.70;;;;;;;5.68;82.39;98118.97;6241994;28;20200;-71
2021/10/15 04:18:49;;;;;;;1.63;1.47;;;;;;;5.65;82.03;98123.53;6259586;28;20189;-71
2021/10/15 04:21:51;;;;;;;1.57;1.30;;;;;;;5.56;82.10;98115.25;6259992;28;20218;-71
2021/10/15 04:24:53;;;;;;;2.00;1.37;;;;;;;5.51;82.57;98111.16;6260020;28;20235;-71
2021/10/15 04:27:55;;;;;;;2.20;1.40;;;;;;;5.42;82.18;98109.03;6256836;28;20216;-71
2021/10/15 04:30:57;;;;;;;2.10;1.70;;;;;;;5.29;82.02;98111.44;6255540;28;20231;-71
2021/10/15 04:33:59;;;;;;;2.00;1.40;;;;;;;5.18;82.57;98109.41;6242875;28;20197;-71
2021/10/15 04:37:01;;;;;;;3.60;1.97;;;;;;;5.10;83.11;98121.16;6258859;28;20197;-71
2021/10/15 04:40:04;;;;;;;3.63;1.83;;;;;;;4.97;83.07;98120.97;6258097;28;20341;-71
2021/10/15 04:43:07;;;;;;;2.00;1.43;;;;;;;4.89;82.76;98117.88;6260373;28;20225;-71
2021/10/15 04:46:09;;;;;;;2.00;1.80;;;;;;;4.82;83.22;98121.72;6257956;28;20195;-71
2021/10/15 04:49:11;;;;;;;2.60;1.77;;;;;;;4.74;83.10;98116.88;6241531;28;20188;-71
2021/10/15 04:52:13;;;;;;;3.43;1.80;;;;;;;4.71;82.49;98114.41;6259144;28;20554;-71
2021/10/15 04:55:15;;;;;;;1.60;1.50;;;;;;;4.65;82.55;98116.50;6240047;28;20207;-71
2021/10/15 04:58:17;;;;;;;3.27;1.87;;;;;;;4.60;83.65;98106.25;6260225;28;20587;-71
2021/10/15 05:01:19;;;;;;;2.30;1.93;;;;;;;4.49;82.79;98099.88;6256968;28;20195;-71
2021/10/15 05:04:22;;;;;;;1.70;1.60;;;;;;;4.39;82.66;98097.69;6242628;28;20223;-71
2021/10/15 05:07:25;;;;;;;3.33;1.50;;;;;;;4.38;82.88;98095.19;6238332;28;20552;-71
2021/10/15 05:10:28;;;;;;;3.90;1.53;;;;;;;4.35;83.00;98088.34;6258248;28;20187;-71
2021/10/15 05:13:30;;;;;;;3.77;2.10;;;;;;;4.35;83.23;98085.72;6259443;28;20195;-71
2021/10/15 05:16:33;;;;;;;3.07;2.13;;;;;;;4.34;83.43;98091.88;6257833;28;20293;-71
2021/10/15 05:19:35;;;;;;;3.00;2.07;;;;;;;4.32;83.20;98088.47;6241201;28;20610;-71
2021/10/15 05:22:38;;;;;;;2.23;1.77;;;;;;;4.28;83.56;98096.56;6257153;28;20664;-71
2021/10/15 05:25:41;;;;;;;3.70;1.97;;;;;;;4.23;83.44;98103.75;6257725;28;20198;-71
2021/10/15 05:28:43;;;;;;;2.00;1.80;;;;;;;4.20;83.36;98096.03;6254375;28;20212;-71
2021/10/15 05:31:45;;;;;;;4.57;1.93;;;;;;;4.15;84.16;98105.88;6259322;28;20737;-71
2021/10/15 05:34:48;;;;;;;2.67;2.27;;;;;;;4.11;84.01;98099.94;6247189;28;20630;-71
2021/10/15 05:37:54;;;;;;;3.63;2.33;;;;;;;4.10;83.60;98100.88;6258374;28;20480;-71
2021/10/15 05:40:56;;;;;;;4.73;3.23;;;;;;;4.12;84.36;98098.19;6258733;28;20605;-71
2021/10/15 05:43:58;;;;;;;3.53;2.63;;;;;;;4.16;83.61;98092.75;6256931;28;20195;-71
2021/10/15 05:47:04;;;;;;;3.07;2.40;;;;;;;4.21;83.93;98095.97;6257002;28;20194;-71
2021/10/15 05:50:08;;;;;;;3.20;2.90;;;;;;;4.27;84.00;98097.47;6256720;28;20202;-71
2021/10/15 05:53:17;;;;;;;3.43;2.67;;;;;;;4.28;83.74;98093.94;6239277;28;20188;-71
2021/10/15 05:59:40;;;;;;;3.27;2.57;;;;;;;4.30;84.30;98090.31;6256546;28;20199;-71
2021/10/15 06:02:45;;;;;;;4.70;3.63;;;;;;;4.33;83.85;98084.94;6246808;28;20198;-71
2021/10/15 06:16:15;;;;;;;2.90;2.20;;;;;;;4.42;83.92;98079.25;6237900;28;20608;-71
2021/10/15 06:19:20;;;;;;;3.07;2.57;;;;;;;4.50;83.76;98078.03;6239813;28;20192;-71
2021/10/15 06:22:27;;;;;;;3.27;2.47;;;;;;;4.53;83.64;98070.91;6253662;28;20559;-71
2021/10/15 06:25:29;;;;;;;3.20;2.07;;;;;;;4.59;83.65;98064.53;6240144;28;20194;-71
2021/10/15 06:28:31;;;;;;;2.13;1.90;;;;;;;4.62;83.56;98067.81;6220797;28;20218;-71
2021/10/15 06:31:33;;;;;;;2.33;1.90;;;;;;;4.66;84.20;98060.69;6256923;28;20233;-71
2021/10/15 06:34:35;;;;;;;2.53;1.80;;;;;;;4.71;83.89;98064.75;6256467;28;20188;-71
2021/10/15 06:37:37;;;;;;;1.93;1.70;;;;;;;4.77;83.98;98064.44;6255609;28;20198;-71
2021/10/15 06:40:39;;;;;;;4.20;1.73;;;;;;;4.87;84.32;98064.81;6257508;28;20197;-71
2021/10/15 06:43:41;;;;;;;2.40;1.67;;;;;;;4.96;83.48;98066.97;6255874;28;20561;-71
2021/10/15 06:46:46;;;;;;;2.10;1.87;;;;;;;5.07;83.82;98059.41;6256426;28;21065;-71
2021/10/15 06:49:48;;;;;;;1.70;1.47;;;;;;;5.17;84.03;98055.38;6236529;28;20240;-71
2021/10/15 06:52:50;;;;;;;2.20;1.60;;;;;;;5.27;84.20;98060.97;6256106;28;20191;-71
2021/10/15 06:55:52;;;;;;;2.00;1.47;;;;;;;5.40;83.92;98066.38;6255488;28;20249;-71
2021/10/15 06:58:54;;;;;;;1.43;1.30;;;;;;;5.54;83.76;98069.13;6256366;28;20199;-71
2021/10/15 07:01:56;;;;;;;1.57;1.47;;;;;;;5.70;83.29;98058.66;6256501;28;20608;-71
2021/10/15 07:04:58;;;;;;;2.70;1.90;;;;;;;5.81;82.94;98056.28;6256325;28;20185;-71
2021/10/15 07:08:00;;;;;;;4.33;1.60;;;;;;;5.94;83.17;98052.09;6255048;28;20571;-71
2021/10/15 07:11:02;;;;;;;3.67;1.50;;;;;;;6.06;83.39;98055.81;6257556;28;20206;-71
2021/10/15 07:14:05;;;;;;;1.53;1.33;;;;;;;6.24;83.39;98049.53;6242036;28;20870;-71
2021/10/15 07:17:07;;;;;;;1.40;1.30;;;;;;;6.42;83.49;98050.25;6226392;28;20207;-71
2021/10/15 07:20:10;;;;;;;1.93;1.27;;;;;;;6.52;82.67;98054.88;6261127;28;20195;-72
2021/10/15 07:23:13;;;;;;;1.63;1.17;;;;;;;6.59;83.04;98050.09;6260935;28;20254;-71
2021/10/15 07:26:15;;;;;;;1.20;1.10;;;;;;;6.69;83.04;98047.81;6242198;28;20192;-72
2021/10/15 07:29:17;;;;;;;2.03;1.40;;;;;;;6.81;83.06;98049.69;6257585;28;20234;-71
2021/10/15 07:32:19;;;;;;;1.60;1.30;;;;;;;6.94;83.41;98046.25;6260847;28;20291;-72
2021/10/15 07:35:22;;;;;;;1.40;1.27;;;;;;;7.07;83.08;98054.25;6257882;28;20232;-71
2021/10/15 07:38:24;;;;;;;1.20;1.10;;;;;;;7.15;83.36;98052.00;6243996;28;20282;-71
2021/10/15 07:41:27;;;;;;;1.20;1.10;;;;;;;7.27;82.70;98051.25;6260448;28;20656;-72
2021/10/15 07:44:28;;;;;;;1.20;1.10;;;;;;;7.40;82.51;98041.69;6243592;28;20188;-72
2021/10/15 07:47:30;;;;;;;1.00;1.00;;;;;;;7.56;82.45;98044.22;6259414;28;20190;-72
2021/10/15 07:50:32;;;;;;;1.17;1.07;;;;;;;7.68;82.02;98029.47;6260398;28;20312;-71
2021/10/15 07:53:35;;;;;;;2.10;1.20;;;;;;;7.78;81.83;98022.69;6260621;28;20198;-71
2021/10/15 07:56:37;;;;;;;2.23;1.10;;;;;;;8.00;82.07;98014.25;6259835;28;20208;-71
2021/10/15 07:59:40;;;;;;;0.83;0.83;;;;;;;8.05;81.43;98020.06;6256245;28;20201;-71
2021/10/15 08:02:42;;;;;;;2.63;0.90;;;;;;;8.06;80.89;98017.34;6241517;28;20187;-71
2021/10/15 08:05:44;;;;;;;0.87;0.73;;;;;;;8.24;81.20;98022.34;6256903;28;20638;-72
2021/10/15 08:08:48;;;;;;;1.00;0.90;;;;;;;8.66;80.65;98019.53;6241050;28;20195;-71
2021/10/15 08:11:51;;;;;;;1.00;0.80;;;;;;;8.98;78.53;98016.53;6226408;28;20194;-72
2021/10/15 08:14:53;;;;;;;0.97;0.80;;;;;;;9.37;77.71;98032.19;6259211;28;20673;-71
2021/10/15 08:17:55;;;;;;;0.70;0.70;;;;;;;9.79;76.30;98022.19;6240590;28;20577;-71
2021/10/15 08:20:57;;;;;;;1.17;0.80;;;;;;;10.20;74.42;98024.50;6238451;28;20209;-72
2021/10/15 08:23:59;;;;;;;1.43;0.77;;;;;;;10.54;73.17;98020.22;6240789;28;20268;-71
2021/10/15 08:27:01;;;;;;;0.90;0.70;;;;;;;10.83;72.34;98015.38;6260288;28;20239;-71
2021/10/15 08:30:04;;;;;;;0.60;0.60;;;;;;;11.14;71.30;98019.16;6255215;28;20230;-72
2021/10/15 08:33:06;;;;;;;0.97;0.90;;;;;;;11.43;70.07;98013.31;6260396;28;20198;-72
2021/10/15 08:36:08;;;;;;;0.60;0.57;;;;;;;11.73;69.62;98010.03;6257853;28;20200;-72
2021/10/15 08:39:11;;;;;;;1.30;0.80;;;;;;;12.02;68.07;98007.72;6259258;28;20196;-71
2021/10/15 08:42:13;;;;;;;1.20;0.77;;;;;;;12.25;66.74;98005.88;6241626;28;20203;-72
2021/10/15 08:45:15;;;;;;;0.63;0.63;;;;;;;12.40;66.21;98004.59;6257001;28;20652;-72
2021/10/15 08:48:17;;;;;;;0.60;0.60;;;;;;;12.60;63.63;98005.59;6254848;28;20279;-72
2021/10/15 08:51:21;;;;;;;0.70;0.60;;;;;;;12.45;62.13;98004.22;6258400;28;20330;-71
2021/10/15 08:54:23;;;;;;;0.80;0.80;;;;;;;12.35;60.58;98009.44;6255448;28;20350;-72
2021/10/15 08:57:25;;;;;;;1.17;0.80;;;;;;;12.51;61.06;98012.50;6239758;28;20295;-72
2021/10/15 09:00:32;;;;;;;0.93;0.70;;;;;;;12.62;62.83;98001.00;6258045;28;20662;-72
2021/10/15 09:03:35;;;;;;;0.90;0.70;;;;;;;12.75;61.14;98001.66;6258434;28;20261;-72
2021/10/15 09:06:39;;;;;;;0.60;0.60;;;;;;;12.81;61.88;98001.16;6259220;28;20181;-72
2021/10/15 09:09:42;;;;;;;1.10;0.57;;;;;;;12.87;60.85;97999.81;6240345;28;20192;-72
2021/10/15 09:12:47;;;;;;;2.07;0.60;;;;;;;12.87;58.92;97998.00;6254541;28;20288;-71
2021/10/15 09:15:58;;;;;;;1.90;0.60;;;;;;;12.84;58.00;97994.75;6259163;28;20259;-72
2021/10/15 09:19:21;;;;;;;0.80;0.63;;;;;;;12.85;59.06;97996.44;6257189;28;20191;-72
2021/10/15 09:22:26;;;;;;;1.67;0.70;;;;;;;12.92;59.37;97993.13;6254266;28;20209;-71
2021/10/15 09:25:34;;;;;;;0.80;0.60;;;;;;;12.97;58.76;97987.47;6258939;28;20322;-72
2021/10/15 09:28:41;;;;;;;0.63;0.60;;;;;;;13.10;59.51;97995.19;6256732;28;20552;-72
2021/10/15 09:31:48;;;;;;;0.70;0.60;;;;;;;13.33;59.49;97978.19;6256034;28;20665;-72
2021/10/15 09:34:51;;;;;;;0.50;0.50;;;;;;;13.47;58.99;97982.28;6254801;28;20197;-72
2021/10/15 09:38:00;;;;;;;0.90;0.67;;;;;;;13.65;57.17;97970.06;6258404;28;20352;-71
2021/10/15 09:41:03;;;;;;;0.60;0.53;;;;;;;13.83;56.15;97963.13;6253159;28;20208;-72
2021/10/15 09:44:33;;;;;;;0.80;0.80;;;;;;;13.71;55.20;97966.88;6238757;28;20203;-72
2021/10/15 09:47:35;;;;;;;0.60;0.60;;;;;;;13.70;55.03;97961.69;6240420;28;20281;-72
2021/10/15 09:50:37;;;;;;;0.90;0.70;;;;;;;13.63;54.98;97967.53;6257585;28;20278;-72
2021/10/15 09:53:40;;;;;;;0.93;0.73;;;;;;;13.63;56.56;97962.25;6238741;28;20198;-72
2021/10/15 09:56:45;;;;;;;1.23;0.73;;;;;;;13.65;56.05;97962.13;6241091;28;20237;-72
2021/10/15 09:59:46;;;;;;;3.63;0.70;;;;;;;13.50;56.14;97964.28;6234370;28;20575;-72
2021/10/15 10:02:48;;;;;;;1.43;0.63;;;;;;;13.40;56.48;97958.09;6239389;28;20200;-72
2021/10/15 10:05:51;;;;;;;0.83;0.80;;;;;;;13.18;56.65;97959.13;6256671;28;20186;-71
2021/10/15 10:08:59;;;;;;;0.80;0.70;;;;;;;13.67;56.81;97955.69;6241640;28;20198;-72
2021/10/15 10:12:02;;;;;;;1.00;0.57;;;;;;;14.34;54.98;97954.94;6256416;28;20664;-72
2021/10/15 10:15:06;;;;;;;1.00;0.87;;;;;;;14.80;53.97;97948.06;6236154;28;20214;-72
2021/10/15 10:18:24;;;;;;;0.90;0.90;;;;;;;15.41;53.90;97950.25;6258149;28;20675;-72
2021/10/15 10:21:33;;;;;;;1.10;0.90;;;;;;;15.56;52.89;97938.19;6255262;28;20203;-72
2021/10/15 10:24:41;;;;;;;1.33;0.97;;;;;;;15.57;52.37;97939.88;6239323;28;20192;-72
2021/10/15 10:27:43;;;;;;;1.13;1.00;;;;;;;15.66;52.86;97925.69;6254100;28;20223;-72
2021/10/15 10:31:03;;;;;;;1.00;0.90;;;;;;;15.54;51.07;97926.84;6256475;28;20307;-72
2021/10/15 10:34:07;;;;;;;1.10;0.87;;;;;;;15.79;50.97;97920.81;6253348;28;20729;-72
2021/10/15 10:37:11;;;;;;;0.70;0.70;;;;;;;16.23;50.11;97910.28;6255913;28;20204;-72
2021/10/15 10:40:28;;;;;;;1.20;0.80;;;;;;;16.24;49.66;97914.63;6253106;28;20204;-72
2021/10/15 10:43:51;;;;;;;1.43;0.83;;;;;;;16.22;49.77;97906.78;6252728;28;20219;-72
2021/10/15 10:47:16;;;;;;;1.27;0.87;;;;;;;16.47;49.45;97901.66;6242911;28;20199;-72
2021/10/15 10:50:20;;;;;;;0.93;0.83;;;;;;;16.71;50.51;97899.19;6262275;28;20196;-72
2021/10/15 10:53:22;;;;;;;0.80;0.80;;;;;;;16.92;49.19;97898.84;6243072;28;20275;-72
2021/10/15 10:56:37;;;;;;;1.00;0.90;;;;;;;16.88;49.01;97890.31;6258070;28;20555;-72
2021/10/15 10:59:39;;;;;;;2.73;1.13;;;;;;;16.93;48.65;97887.19;6243115;28;20273;-72
2021/10/15 11:03:00;;;;;;;1.20;1.10;;;;;;;16.90;47.60;97872.31;6261136;28;20568;-72
2021/10/15 11:06:02;;;;;;;1.30;1.10;;;;;;;16.93;48.84;97873.84;6260615;28;20745;-71
2021/10/15 11:09:31;;;;;;;4.00;0.87;;;;;;;17.18;48.84;97875.63;6261305;28;20639;-72
2021/10/15 11:12:33;;;;;;;1.00;0.83;;;;;;;17.18;48.32;97867.63;6237407;28;20203;-72
2021/10/15 11:15:35;;;;;;;2.40;1.07;;;;;;;17.25;47.34;97859.84;6260169;28;20193;-72
2021/10/15 11:18:38;;;;;;;3.27;0.80;;;;;;;17.44;48.03;97854.25;6259778;28;20667;-72
2021/10/15 11:21:40;;;;;;;1.07;0.97;;;;;;;17.49;47.73;97853.75;6261421;28;20191;-72
2021/10/15 11:24:54;;;;;;;0.83;0.80;;;;;;;17.83;46.11;97843.03;6259942;28;20191;-72
2021/10/15 11:28:00;;;;;;;1.10;0.93;;;;;;;17.76;46.27;97842.00;6259661;28;20289;-72
2021/10/15 11:31:08;;;;;;;1.00;0.70;;;;;;;17.70;46.30;97839.00;6250048;28;20286;-72
2021/10/15 11:34:12;;;;;;;1.50;0.70;;;;;;;17.42;45.95;97839.38;6258770;28;20216;-72
2021/10/15 11:37:14;;;;;;;0.83;0.70;;;;;;;17.70;46.07;97843.50;6242290;28;20583;-72
2021/10/15 11:40:27;;;;;;;0.90;0.70;;;;;;;17.73;45.43;97837.00;6248434;28;20202;-72
2021/10/15 11:43:32;;;;;;;1.07;0.70;;;;;;;18.02;44.64;97837.38;6258709;28;20258;-72
2021/10/15 11:46:34;;;;;;;1.03;0.80;;;;;;;18.31;44.24;97824.34;6261010;28;20188;-72
2021/10/15 11:49:38;;;;;;;0.93;0.70;;;;;;;18.32;44.02;97822.50;6258425;28;20203;-72
2021/10/15 11:52:56;;;;;;;0.90;0.60;;;;;;;18.79;43.85;97815.44;6241826;28;20606;-72
2021/10/15 11:56:01;;;;;;;1.27;0.67;;;;;;;18.89;43.02;97812.56;6259925;28;20322;-72
2021/10/15 11:59:08;;;;;;;1.67;0.50;;;;;;;18.86;43.09;97810.25;6257990;28;20221;-72
2021/10/15 12:02:10;;;;;;;1.83;0.67;;;;;;;18.93;42.76;97818.41;6243271;28;20644;-72
2021/10/15 12:05:24;;;;;;;1.80;0.60;;;;;;;18.84;43.05;97811.41;6258179;28;20192;-72
2021/10/15 12:08:26;;;;;;;0.93;0.70;;;;;;;19.03;42.75;97798.47;6256980;28;20181;-72
2021/10/15 12:11:28;;;;;;;0.60;0.60;;;;;;;19.21;42.21;97790.19;6240444;28;20220;-72
2021/10/15 12:14:33;;;;;;;0.73;0.47;;;;;;;19.38;42.11;97793.63;6260554;28;20192;-72
2021/10/15 12:17:35;;;;;;;0.57;0.57;;;;;;;19.45;41.78;97784.72;6241140;28;20705;-72
2021/10/15 12:20:37;;;;;;;0.83;0.60;;;;;;;19.36;41.50;97788.47;6258182;28;20330;-72
2021/10/15 12:23:50;;;;;;;0.60;0.47;;;;;;;19.49;41.83;97787.91;6258404;28;20219;-72
2021/10/15 12:27:04;;;;;;;0.70;0.70;;;;;;;19.98;40.39;97783.03;6257892;28;20496;-72
2021/10/15 12:30:24;;;;;;;1.13;0.63;;;;;;;19.90;40.25;97788.47;6255043;28;20306;-72
2021/10/15 12:33:27;;;;;;;1.07;0.50;;;;;;;20.26;40.38;97778.75;6258327;28;20667;-72
2021/10/15 12:36:29;;;;;;;0.60;0.60;;;;;;;20.21;39.68;97781.16;6258119;28;20664;-72
2021/10/15 12:39:31;;;;;;;0.97;0.70;;;;;;;20.34;39.08;97777.03;6241919;28;20194;-72
2021/10/15 12:42:33;;;;;;;0.87;0.57;;;;;;;20.18;39.30;97778.84;6259087;28;20679;-72
2021/10/15 12:45:47;;;;;;;2.23;0.60;;;;;;;20.38;39.12;97778.34;6258257;28;20195;-72
2021/10/15 12:49:01;;;;;;;0.77;0.70;;;;;;;20.76;38.42;97777.31;6224701;28;20196;-72
2021/10/15 12:52:04;;;;;;;0.60;0.60;;;;;;;20.94;38.03;97763.50;6257879;28;20196;-72
2021/10/15 12:55:18;;;;;;;1.60;0.60;;;;;;;20.58;38.56;97772.28;6241964;28;20219;-72
2021/10/15 12:58:20;;;;;;;1.70;0.43;;;;;;;20.19;39.24;97768.97;6257950;28;20206;-72
2021/10/15 13:01:33;;;;;;;0.77;0.77;;;;;;;19.76;40.69;97759.78;6240363;28;20270;-72
2021/10/15 13:04:37;;;;;;;1.00;0.70;;;;;;;20.05;42.06;97759.88;6257822;28;20675;-72
2021/10/15 13:07:40;;;;;;;1.27;0.90;;;;;;;19.92;39.93;97756.13;6240230;28;20194;-72
2021/10/15 13:10:42;;;;;;;1.80;0.70;;;;;;;20.21;39.81;97750.84;6257889;28;20196;-72
2021/10/15 13:13:46;;;;;;;1.00;0.60;;;;;;;20.61;39.84;97745.09;6258682;28;20203;-72
2021/10/15 13:16:48;;;;;;;0.80;0.70;;;;;;;21.28;38.28;97749.50;6256184;28;20204;-72
2021/10/15 13:19:53;;;;;;;0.80;0.53;;;;;;;21.79;36.79;97742.19;6256235;28;20221;-72
2021/10/15 13:22:57;;;;;;;0.50;0.50;;;;;;;22.74;35.28;97739.88;6239985;28;20614;-72
2021/10/15 13:25:59;;;;;;;0.83;0.70;;;;;;;24.03;32.96;97738.03;6257825;28;20228;-72
2021/10/15 13:29:01;;;;;;;1.67;0.80;;;;;;;25.56;30.02;97742.03;6243935;28;20235;-72
2021/10/15 13:32:05;;;;;;;0.63;0.63;;;;;;;26.28;29.00;97738.88;6256901;28;20270;-72
2021/10/15 13:35:08;;;;;;;1.60;0.50;;;;;;;25.80;29.04;97740.50;6255700;28;20225;-72
2021/10/15 13:38:13;;;;;;;1.53;0.80;;;;;;;23.25;32.45;97741.38;6256689;28;20279;-72
2021/10/15 13:41:50;;;;;;;0.60;0.60;;;;;;;20.76;37.36;97736.25;6239707;28;20698;-72
2021/10/15 13:50:43;;;;;;;0.40;0.40;;;;;;;18.24;43.31;97737.84;6256909;28;20329;-71
2021/10/15 13:53:45;;;;;;;0.67;0.67;;;;;;;17.89;45.93;97746.22;6239273;28;20554;-72
2021/10/15 13:56:47;;;;;;;0.70;0.70;;;;;;;17.64;46.65;97742.72;6256581;28;20203;-71
2021/10/15 14:00:05;;;;;;;1.00;0.70;;;;;;;17.27;47.64;97737.78;6256873;28;20271;-71
2021/10/15 14:03:41;;;;;;;1.70;0.90;;;;;;;16.84;49.11;97739.69;6239007;28;20275;-72
2021/10/15 14:06:40;;;;;;;1.00;0.70;;;;;;;16.17;49.30;97741.28;6257650;28;20272;-71
2021/10/15 14:09:43;;;;;;;0.77;0.70;;;;;;;15.84;50.72;97747.38;6256663;28;20192;-71
2021/10/15 14:12:44;;;;;;;0.77;0.60;;;;;;;15.63;51.28;97745.03;6253472;28;20196;-71
2021/10/15 14:15:51;;;;;;;2.10;0.80;;;;;;;15.17;51.97;97746.06;6257823;28;20565;-71
2021/10/15 14:18:53;;;;;;;0.97;0.60;;;;;;;15.10;52.65;97740.50;6239051;28;20346;-71
2021/10/15 14:21:55;;;;;;;0.60;0.60;;;;;;;15.17;54.44;97739.91;6238305;28;20206;-72
2021/10/15 14:24:57;;;;;;;2.23;0.60;;;;;;;15.30;54.79;97741.19;6256672;28;20568;-71
2021/10/15 14:27:59;;;;;;;1.60;0.73;;;;;;;15.29;55.01;97746.66;6257823;28;20227;-71
2021/10/15 14:31:01;;;;;;;1.20;1.10;;;;;;;15.21;56.47;97749.25;6253226;28;20224;-71
2021/10/15 14:34:03;;;;;;;1.93;1.03;;;;;;;15.18;57.54;97754.84;6255901;28;20187;-71
2021/10/15 14:37:05;;;;;;;2.97;0.73;;;;;;;15.12;58.14;97749.16;6238198;28;20286;-71
2021/10/15 14:40:09;;;;;;;0.70;0.70;;;;;;;15.11;58.82;97750.16;6255747;28;20242;-71
2021/10/15 14:43:11;;;;;;;2.07;1.00;;;;;;;15.01;58.16;97744.06;6254877;28;20203;-71
2021/10/15 14:46:14;;;;;;;1.23;0.80;;;;;;;14.86;59.58;97742.06;6257187;28;20663;-71
2021/10/15 14:49:17;;;;;;;0.63;0.63;;;;;;;14.63;60.86;97741.63;6257372;28;20192;-71
2021/10/15 14:52:20;;;;;;;0.80;0.53;;;;;;;14.44;61.68;97753.16;6222006;28;20604;-71